Time;durP1;ratioP1;P1;durP2;ratioP2;P2;SDS_P1;SDS_P2;PMS_P1;PMS_P2;Temp;Humidity;BMP_temperature;BMP_pressure;BME280_temperature;BME280_humidity;BME280_pressure;Samples;Min_cycle;Max_cycle;Signal;HPM_P1;HPM_P2
2024/01/15 00:01:30;;;;;;;34.90;18.30;;;;;;;5.46;55.49;98429.84;108134;1254;61690;-67
2024/01/15 00:03:59;;;;;;;34.30;16.60;;;;;;;5.29;55.86;98426.02;108041;1253;61744;-67
2024/01/15 00:06:28;;;;;;;35.60;18.50;;;;;;;5.15;56.32;98422.94;108022;1253;73276;-66
2024/01/15 00:08:58;;;;;;;36.20;18.20;;;;;;;5.28;56.18;98421.38;108091;1254;68616;-67
2024/01/15 00:11:25;;;;;;;38.30;18.10;;;;;;;5.44;55.97;98421.56;107992;1253;71399;-66
2024/01/15 00:13:53;;;;;;;36.50;18.80;;;;;;;5.49;55.50;98419.08;108105;1253;60460;-66
2024/01/15 00:16:21;;;;;;;35.50;17.80;;;;;;;5.42;55.86;98420.41;108075;1253;59491;-66
2024/01/15 00:18:49;;;;;;;35.30;18.80;;;;;;;5.55;55.60;98418.95;108007;1253;73149;-65
2024/01/15 00:21:17;;;;;;;35.50;18.20;;;;;;;5.50;55.70;98422.52;108077;1253;69081;-67
2024/01/15 00:23:44;;;;;;;33.50;17.30;;;;;;;5.52;55.68;98427.30;108074;1253;71278;-68
2024/01/15 00:26:12;;;;;;;34.00;17.90;;;;;;;5.44;55.76;98421.55;108087;1252;59758;-68
2024/01/15 00:28:40;;;;;;;30.80;17.90;;;;;;;5.61;55.44;98421.33;108148;1253;59433;-67
2024/01/15 00:31:08;;;;;;;30.90;16.40;;;;;;;5.48;55.91;98419.80;108206;1252;71794;-67
2024/01/15 00:33:36;;;;;;;32.50;17.40;;;;;;;5.39;56.07;98418.09;107948;1252;70621;-67
2024/01/15 00:36:04;;;;;;;30.20;16.60;;;;;;;5.54;55.67;98416.08;108057;1254;71391;-65
2024/01/15 00:38:32;;;;;;;31.80;17.40;;;;;;;5.44;55.82;98418.08;108112;1253;59609;-67
2024/01/15 00:40:59;;;;;;;39.10;19.00;;;;;;;5.34;56.08;98422.30;108143;1252;60040;-67
2024/01/15 00:43:27;;;;;;;33.00;15.20;;;;;;;5.63;55.64;98425.76;108102;1253;72769;-65
2024/01/15 00:45:54;;;;;;;35.30;17.30;;;;;;;5.44;56.13;98427.82;108151;1253;68702;-67
2024/01/15 00:48:22;;;;;;;35.20;18.10;;;;;;;5.51;56.03;98426.83;108044;1256;72506;-66
2024/01/15 00:50:51;;;;;;;33.30;16.70;;;;;;;5.67;55.51;98427.48;108155;1253;61141;-67
2024/01/15 00:53:19;;;;;;;34.20;17.20;;;;;;;5.59;56.01;98421.41;108132;1253;60109;-67
2024/01/15 00:55:48;;;;;;;36.50;17.80;;;;;;;5.65;55.95;98422.73;108163;1253;73359;-65
2024/01/15 00:58:16;;;;;;;32.80;18.40;;;;;;;5.55;56.11;98417.04;108136;1253;70497;-66
2024/01/15 01:00:43;;;;;;;32.10;17.80;;;;;;;5.67;55.77;98417.77;108089;1253;73142;-66
2024/01/15 01:03:11;;;;;;;36.90;18.70;;;;;;;5.62;55.96;98417.29;108170;1253;60521;-66
2024/01/15 01:05:38;;;;;;;32.30;17.60;;;;;;;5.56;56.24;98418.77;108144;1252;60045;-66
2024/01/15 01:08:06;;;;;;;37.50;18.50;;;;;;;5.58;56.29;98418.68;108112;1252;70592;-67
2024/01/15 01:10:34;;;;;;;30.70;17.90;;;;;;;5.74;56.02;98412.05;108095;1253;69251;-66
2024/01/15 01:13:01;;;;;;;39.80;20.00;;;;;;;5.74;55.89;98409.08;108078;1253;71721;-67
2024/01/15 01:15:28;;;;;;;37.20;18.90;;;;;;;5.83;55.59;98415.13;108039;1253;59854;-67
2024/01/15 01:17:56;;;;;;;38.60;19.40;;;;;;;5.87;55.70;98412.35;108074;1252;59542;-67
2024/01/15 01:20:24;;;;;;;36.90;16.90;;;;;;;5.84;55.86;98412.81;108083;1253;71830;-68
2024/01/15 01:22:51;;;;;;;38.40;18.80;;;;;;;5.75;55.91;98412.70;108103;1253;69605;-67
2024/01/15 01:25:19;;;;;;;36.90;18.50;;;;;;;5.87;56.05;98412.86;108230;1253;72705;-65
2024/01/15 01:27:47;;;;;;;38.70;18.90;;;;;;;5.97;55.52;98412.06;108135;1257;59605;-66
2024/01/15 01:30:14;;;;;;;32.40;16.80;;;;;;;5.92;55.72;98410.39;108098;1253;60040;-67
2024/01/15 01:32:42;;;;;;;33.20;18.30;;;;;;;6.03;55.22;98405.88;108076;1253;71818;-66
2024/01/15 01:35:10;;;;;;;33.50;18.50;;;;;;;6.06;55.44;98408.17;108038;1258;70326;-67
2024/01/15 01:37:37;;;;;;;34.90;18.80;;;;;;;5.96;55.44;98414.20;108072;1254;71564;-66
2024/01/15 01:40:06;;;;;;;34.20;18.10;;;;;;;5.98;55.38;98412.20;108140;1252;60367;-66
2024/01/15 01:42:33;;;;;;;32.70;17.20;;;;;;;5.91;55.62;98409.02;108147;1257;59635;-65
2024/01/15 01:45:01;;;;;;;33.60;18.00;;;;;;;5.85;56.00;98408.27;108181;1253;73088;-65
2024/01/15 01:47:28;;;;;;;32.40;17.00;;;;;;;5.84;55.90;98412.99;108112;1253;68798;-65
2024/01/15 01:49:56;;;;;;;32.40;16.50;;;;;;;5.79;56.31;98409.91;108099;1253;71488;-66
2024/01/15 01:52:23;;;;;;;34.50;18.50;;;;;;;5.76;56.22;98410.74;108011;1253;59763;-66
2024/01/15 01:54:51;;;;;;;32.80;16.90;;;;;;;5.83;56.05;98411.48;108109;1252;59398;-67
2024/01/15 01:57:19;;;;;;;34.30;17.70;;;;;;;5.73;56.30;98411.05;108033;1252;73033;-65
2024/01/15 01:59:47;;;;;;;32.10;17.80;;;;;;;5.87;56.02;98412.83;108134;1253;68249;-67
2024/01/15 02:02:15;;;;;;;33.70;18.20;;;;;;;5.70;56.49;98410.65;107912;1252;72618;-66
2024/01/15 02:04:42;;;;;;;33.50;17.80;;;;;;;5.79;56.24;98413.04;107906;1260;59602;-66
2024/01/15 02:07:10;;;;;;;32.70;17.80;;;;;;;5.86;56.12;98413.94;108065;1253;59496;-66
2024/01/15 02:09:37;;;;;;;32.00;17.20;;;;;;;5.84;56.35;98417.15;108193;1252;72354;-67
2024/01/15 02:12:06;;;;;;;31.70;17.50;;;;;;;5.87;56.16;98417.03;108086;1253;68924;-67
2024/01/15 02:14:33;;;;;;;30.50;16.30;;;;;;;5.78;56.14;98413.98;108223;1256;71805;-67
2024/01/15 02:17:01;;;;;;;27.90;14.20;;;;;;;5.67;56.71;98413.54;108098;1253;61765;-67
2024/01/15 02:19:28;;;;;;;33.80;17.60;;;;;;;5.68;56.62;98411.63;108167;1253;59972;-65
2024/01/15 02:21:56;;;;;;;33.70;17.80;;;;;;;5.70;56.60;98414.82;108264;1253;71888;-66
2024/01/15 02:24:23;;;;;;;33.20;18.00;;;;;;;5.70;56.45;98414.14;108098;1253;69973;-66
2024/01/15 02:26:51;;;;;;;30.20;16.70;;;;;;;5.72;56.44;98419.08;108060;1253;72964;-66
2024/01/15 03:10:14;;;;;;;31.50;17.80;;;;;;;5.70;54.99;98417.80;104999;1292;600079;-66
2024/01/15 03:12:42;;;;;;;37.30;18.30;;;;;;;5.74;54.62;98416.92;107209;1267;60868;-66
2024/01/15 03:15:10;;;;;;;33.00;17.90;;;;;;;5.82;54.34;98416.90;107201;1267;60035;-65
2024/01/15 03:17:38;;;;;;;37.40;17.20;;;;;;;5.80;54.43;98415.44;107219;1265;72306;-64
2024/01/15 03:20:07;;;;;;;34.20;17.40;;;;;;;5.85;54.10;98416.45;107177;1267;70162;-66
2024/01/15 03:22:34;;;;;;;37.70;15.90;;;;;;;5.78;53.97;98416.40;107277;1266;71486;-67
2024/01/15 03:25:03;;;;;;;36.20;17.80;;;;;;;5.65;54.15;98418.17;107251;1262;129415;-66
2024/01/15 03:27:31;;;;;;;34.70;17.80;;;;;;;5.76;53.72;98409.88;107430;1262;59071;-65
2024/01/15 03:29:59;;;;;;;33.60;17.00;;;;;;;5.64;54.00;98413.19;107339;1263;71840;-65
2024/01/15 03:32:26;;;;;;;34.40;17.90;;;;;;;5.71;53.71;98409.90;107319;1263;70326;-64
2024/01/15 03:34:54;;;;;;;29.40;16.60;;;;;;;5.64;53.60;98409.34;107961;1257;72911;-66
2024/01/15 03:37:22;;;;;;;36.50;16.60;;;;;;;5.60;53.77;98410.02;107857;1257;60391;-66
2024/01/15 03:39:49;;;;;;;39.20;19.30;;;;;;;5.53;53.86;98410.52;107705;1256;59246;-66
2024/01/15 03:42:17;;;;;;;39.60;18.40;;;;;;;5.46;53.97;98412.77;107941;1256;71862;-68
2024/01/15 03:44:45;;;;;;;45.60;20.70;;;;;;;5.61;53.60;98408.11;107923;1256;69013;-65
2024/01/15 03:47:12;;;;;;;39.60;19.10;;;;;;;5.56;53.54;98404.31;107899;1257;72513;-67
2024/01/15 03:49:40;;;;;;;34.70;19.30;;;;;;;5.58;53.46;98402.46;107883;1257;61642;-66
2024/01/15 03:52:08;;;;;;;43.10;20.50;;;;;;;5.56;53.54;98407.96;107716;1255;59971;-66
2024/01/15 03:54:36;;;;;;;40.40;19.90;;;;;;;5.55;53.51;98409.73;107683;1257;72277;-67
2024/01/15 03:57:04;;;;;;;35.90;17.90;;;;;;;5.45;53.53;98409.98;107896;1257;68872;-66
2024/01/15 03:59:32;;;;;;;42.00;20.20;;;;;;;5.48;53.39;98408.84;107701;1257;72508;-67
2024/01/15 04:01:59;;;;;;;35.50;18.20;;;;;;;5.37;53.54;98410.89;107871;1257;60433;-67
2024/01/15 04:04:27;;;;;;;38.90;19.40;;;;;;;5.42;53.47;98414.65;107679;1256;61125;-66
2024/01/15 04:06:55;;;;;;;35.20;17.00;;;;;;;5.33;53.49;98415.94;107899;1255;71753;-66
2024/01/15 04:09:22;;;;;;;38.80;18.00;;;;;;;5.26;53.50;98412.38;107924;1257;69252;-66
2024/01/15 04:11:50;;;;;;;35.10;17.60;;;;;;;5.35;53.32;98409.77;107915;1257;71849;-66
2024/01/15 04:14:17;;;;;;;39.20;16.00;;;;;;;5.27;53.34;98415.69;107891;1257;60382;-65
2024/01/15 04:16:45;;;;;;;35.40;18.00;;;;;;;5.29;53.49;98411.95;107871;1254;60034;-66
2024/01/15 04:19:13;;;;;;;38.40;17.60;;;;;;;5.31;53.22;98412.52;107823;1256;71783;-65
2024/01/15 04:21:42;;;;;;;38.10;19.30;;;;;;;5.15;53.35;98414.44;107701;1257;69248;-67
2024/01/15 04:24:10;;;;;;;40.30;19.20;;;;;;;5.07;53.42;98418.42;107812;1257;72649;-66
2024/01/15 04:26:37;;;;;;;32.00;16.10;;;;;;;5.09;53.18;98419.38;107740;1260;60685;-65
2024/01/15 04:29:05;;;;;;;33.20;14.80;;;;;;;4.93;53.63;98420.39;107796;1257;59500;-66
2024/01/15 04:31:34;;;;;;;39.00;19.50;;;;;;;4.79;53.82;98418.17;107630;1262;73137;-66
2024/01/15 04:34:01;;;;;;;34.30;16.70;;;;;;;4.92;53.45;98421.62;107762;1256;68900;-66
2024/01/15 04:36:29;;;;;;;37.60;19.30;;;;;;;4.82;53.55;98421.19;107797;1257;70465;-64
2024/01/15 04:38:56;;;;;;;39.90;19.50;;;;;;;4.88;53.46;98420.23;107793;1257;59846;-65
2024/01/15 04:41:24;;;;;;;37.20;17.40;;;;;;;5.11;52.73;98420.54;107819;1256;60142;-66
2024/01/15 04:43:52;;;;;;;43.50;19.10;;;;;;;5.10;52.77;98422.98;107608;1257;73036;-66
2024/01/15 04:46:20;;;;;;;39.50;19.60;;;;;;;5.11;52.69;98424.88;107854;1257;68707;-63
2024/01/15 04:48:47;;;;;;;43.50;20.40;;;;;;;5.23;52.29;98430.79;107647;1257;71943;-67
2024/01/15 04:51:15;;;;;;;41.00;18.80;;;;;;;5.42;51.89;98433.98;107711;1257;61595;-67
2024/01/15 04:53:42;;;;;;;36.80;17.90;;;;;;;5.12;52.55;98440.64;107772;1256;59657;-66
2024/01/15 04:56:10;;;;;;;41.70;19.00;;;;;;;5.13;52.54;98445.64;107749;1257;73129;-66
2024/01/15 04:58:37;;;;;;;45.50;21.50;;;;;;;5.20;52.00;98451.95;107739;1260;70129;-67
2024/01/15 05:01:05;;;;;;;30.50;14.70;;;;;;;4.99;52.45;98447.80;107723;1257;71625;-67
2024/01/15 05:03:33;;;;;;;40.30;18.60;;;;;;;4.95;52.29;98444.65;107796;1261;60461;-65
2024/01/15 05:06:00;;;;;;;34.90;17.00;;;;;;;4.75;52.52;98448.23;107886;1257;59533;-65
2024/01/15 05:08:28;;;;;;;41.00;19.90;;;;;;;4.69;52.67;98448.84;107875;1256;71822;-66
2024/01/15 05:10:56;;;;;;;36.30;17.50;;;;;;;4.80;52.51;98451.70;107785;1258;68104;-66
2024/01/15 05:13:23;;;;;;;39.00;17.30;;;;;;;4.85;52.28;98449.95;107779;1257;72117;-67
2024/01/15 05:15:51;;;;;;;38.20;19.10;;;;;;;5.01;51.82;98451.39;107881;1256;60407;-67
2024/01/15 05:18:18;;;;;;;40.00;18.80;;;;;;;4.82;51.91;98450.20;107837;1256;60170;-68
2024/01/15 05:20:46;;;;;;;36.10;17.30;;;;;;;4.89;51.61;98443.88;107650;1257;73595;-68
2024/01/15 05:23:14;;;;;;;39.80;18.80;;;;;;;4.92;51.51;98439.23;107803;1258;69251;-66
2024/01/15 05:25:41;;;;;;;36.10;16.70;;;;;;;4.76;51.60;98439.16;107736;1256;71422;-69
2024/01/15 05:28:09;;;;;;;47.50;19.20;;;;;;;4.77;51.41;98435.14;107731;1257;61696;-65
2024/01/15 05:30:36;;;;;;;32.90;16.50;;;;;;;4.75;51.31;98439.36;107735;1255;59240;-66
2024/01/15 05:33:04;;;;;;;39.70;20.60;;;;;;;4.77;50.99;98438.95;107775;1257;71842;-66
2024/01/15 05:35:32;;;;;;;43.50;18.50;;;;;;;4.87;50.86;98442.54;107844;1257;69214;-70
2024/01/15 05:38:00;;;;;;;34.30;18.10;;;;;;;4.82;51.08;98444.52;107777;1255;72661;-65
2024/01/15 05:40:27;;;;;;;46.60;21.40;;;;;;;4.97;50.82;98442.50;108015;1254;60394;-66
2024/01/15 05:42:55;;;;;;;30.60;14.80;;;;;;;4.91;50.69;98443.42;108024;1254;59595;-66
2024/01/15 05:45:22;;;;;;;44.50;19.90;;;;;;;4.62;51.09;98443.05;108046;1254;71724;-66
2024/01/15 05:47:50;;;;;;;43.30;18.50;;;;;;;4.89;50.80;98437.09;108078;1254;69982;-65
2024/01/15 05:50:18;;;;;;;38.70;18.60;;;;;;;4.64;51.01;98445.38;108126;1258;72663;-66
2024/01/15 05:52:46;;;;;;;45.20;20.30;;;;;;;5.00;50.43;98442.02;108045;1253;60381;-68
2024/01/15 05:55:13;;;;;;;43.20;19.80;;;;;;;5.13;50.12;98448.25;108083;1258;59538;-65
2024/01/15 05:57:41;;;;;;;42.10;19.60;;;;;;;5.04;50.05;98453.70;108101;1254;72023;-66
2024/01/15 06:00:09;;;;;;;53.40;21.70;;;;;;;5.11;49.98;98454.96;108121;1254;68356;-67
2024/01/15 06:02:39;;;;;;;37.80;17.70;;;;;;;5.05;49.92;98456.41;108122;1259;72997;-66
2024/01/15 06:05:07;;;;;;;36.90;18.90;;;;;;;5.00;50.12;98462.36;108169;1254;61330;-65
2024/01/15 06:07:35;;;;;;;41.60;19.00;;;;;;;4.87;50.25;98467.92;108131;1254;59533;-67
2024/01/15 06:10:04;;;;;;;40.70;17.90;;;;;;;5.02;50.29;98471.67;108126;1254;72828;-68
2024/01/15 06:12:33;;;;;;;39.80;19.10;;;;;;;5.03;49.86;98471.64;108154;1254;69923;-67
2024/01/15 06:15:02;;;;;;;41.60;19.40;;;;;;;5.10;49.98;98467.17;108120;1254;71450;-67
2024/01/15 06:17:31;;;;;;;40.40;18.10;;;;;;;5.04;49.93;98469.34;108156;1257;60373;-67
2024/01/15 06:19:59;;;;;;;43.70;20.40;;;;;;;5.32;49.28;98463.45;108082;1253;60278;-67
2024/01/15 06:22:27;;;;;;;44.30;21.10;;;;;;;5.24;49.40;98463.27;108281;1254;72050;-66
2024/01/15 06:24:55;;;;;;;45.80;22.80;;;;;;;5.26;49.33;98462.33;108146;1258;70289;-68
2024/01/15 06:27:23;;;;;;;52.10;22.10;;;;;;;5.26;49.25;98466.17;108199;1254;71104;-67
2024/01/15 06:29:50;;;;;;;36.50;18.30;;;;;;;5.09;49.43;98469.63;108125;1254;61720;-66
2024/01/15 06:32:18;;;;;;;36.80;18.90;;;;;;;5.14;49.32;98471.17;108026;1254;59993;-67
2024/01/15 06:34:45;;;;;;;39.60;19.00;;;;;;;5.10;49.37;98472.91;107876;1253;73361;-67
2024/01/15 06:37:13;;;;;;;45.30;19.70;;;;;;;5.11;49.51;98475.67;107923;1254;68939;-66
2024/01/15 06:39:40;;;;;;;42.60;19.30;;;;;;;5.14;49.15;98476.58;107888;1254;72537;-66
2024/01/15 06:42:08;;;;;;;41.00;19.60;;;;;;;4.82;49.65;98478.21;107927;1257;60537;-67
2024/01/15 06:44:36;;;;;;;40.80;19.10;;;;;;;5.10;49.28;98475.52;107918;1254;59519;-67
2024/01/15 06:47:03;;;;;;;35.60;17.50;;;;;;;5.13;49.31;98477.65;107913;1254;72831;-66
2024/01/15 06:49:31;;;;;;;36.80;17.30;;;;;;;5.07;49.14;98479.31;107937;1254;69147;-67
2024/01/15 06:51:59;;;;;;;33.10;16.80;;;;;;;4.97;49.44;98473.48;107920;1257;71396;-65
2024/01/15 06:54:27;;;;;;;34.20;16.80;;;;;;;4.80;49.91;98475.17;107962;1254;59500;-69
2024/01/15 06:56:55;;;;;;;37.10;15.70;;;;;;;4.92;49.47;98475.05;107970;1257;59562;-68
2024/01/15 06:59:22;;;;;;;36.70;17.50;;;;;;;4.85;49.54;98463.52;107991;1254;73091;-66
2024/01/15 07:01:50;;;;;;;33.40;15.90;;;;;;;4.85;49.42;98464.36;107960;1254;70012;-66
2024/01/15 07:04:17;;;;;;;39.90;18.80;;;;;;;4.92;49.39;98461.64;107991;1254;71658;-66
2024/01/15 07:06:45;;;;;;;37.70;17.70;;;;;;;5.07;49.14;98465.59;108033;1254;63535;-66
2024/01/15 07:09:13;;;;;;;32.90;16.30;;;;;;;5.17;49.20;98464.80;107902;1254;59016;-66
2024/01/15 07:11:45;;;;;;;36.50;17.30;;;;;;;5.17;49.01;98463.21;107987;1254;72773;-66
2024/01/15 07:14:13;;;;;;;36.70;16.40;;;;;;;5.03;48.94;98459.30;107967;1259;70439;-66
2024/01/15 07:16:41;;;;;;;30.10;15.30;;;;;;;4.98;49.08;98452.21;107902;1254;72012;-66
2024/01/15 07:19:14;;;;;;;27.90;13.30;;;;;;;5.22;48.86;98451.19;108059;1254;61983;-66
2024/01/15 07:21:42;;;;;;;35.70;16.60;;;;;;;5.00;49.32;98450.02;107918;1254;60609;-66
2024/01/15 07:24:11;;;;;;;21.60;9.70;;;;;;;5.27;49.08;98455.87;108204;1254;73306;-66
2024/01/15 07:26:38;;;;;;;32.80;16.00;;;;;;;5.21;49.57;98454.89;107915;1254;70489;-66
2024/01/15 07:29:08;;;;;;;35.70;17.20;;;;;;;5.40;49.51;98450.98;107904;1254;71842;-66
2024/01/15 07:31:35;;;;;;;38.90;16.20;;;;;;;5.63;49.38;98448.36;107821;1254;60681;-66
2024/01/15 07:34:03;;;;;;;37.80;17.90;;;;;;;5.42;50.11;98441.27;107919;1254;60388;-66
2024/01/15 07:36:31;;;;;;;40.50;17.30;;;;;;;5.41;50.41;98438.71;107926;1254;73929;-66
2024/01/15 07:38:59;;;;;;;35.70;18.00;;;;;;;5.48;50.45;98438.22;107924;1254;70216;-66
2024/01/15 07:41:27;;;;;;;34.70;16.90;;;;;;;5.56;50.41;98438.42;107909;1259;73235;-66
2024/01/15 07:43:55;;;;;;;45.70;20.70;;;;;;;5.60;50.38;98439.96;107892;1257;59715;-66
2024/01/15 07:46:22;;;;;;;37.40;17.60;;;;;;;5.60;50.52;98439.82;107872;1254;59150;-67
2024/01/15 07:48:55;;;;;;;42.50;20.30;;;;;;;5.58;50.55;98435.91;107943;1254;73799;-66
2024/01/15 07:51:24;;;;;;;40.60;19.40;;;;;;;5.53;50.83;98433.36;107915;1254;69302;-66
2024/01/15 07:53:53;;;;;;;36.50;17.80;;;;;;;5.40;51.18;98433.73;107964;1254;72636;-66
2024/01/15 07:56:21;;;;;;;40.10;17.00;;;;;;;5.50;50.98;98429.45;107974;1254;60959;-66
2024/01/15 07:58:48;;;;;;;41.00;19.40;;;;;;;5.46;51.03;98431.04;107958;1254;60355;-66
2024/01/15 08:01:17;;;;;;;37.00;17.00;;;;;;;5.39;51.37;98437.23;107993;1254;74130;-67
2024/01/15 08:03:45;;;;;;;36.80;18.30;;;;;;;5.47;51.38;98431.02;107992;1254;68712;-67
2024/01/15 08:06:12;;;;;;;36.80;17.30;;;;;;;5.60;50.92;98428.66;107980;1254;71445;-67
2024/01/15 08:08:42;;;;;;;41.20;17.80;;;;;;;5.59;51.06;98433.59;107857;1254;61309;-66
2024/01/15 08:11:10;;;;;;;30.10;13.10;;;;;;;5.47;51.43;98430.64;107974;1253;60559;-67
2024/01/15 08:13:37;;;;;;;40.50;18.20;;;;;;;5.05;52.28;98424.41;107969;1254;73914;-67
2024/01/15 08:16:05;;;;;;;40.00;17.90;;;;;;;5.29;51.69;98424.13;107980;1255;70875;-66
2024/01/15 08:18:33;;;;;;;41.60;19.70;;;;;;;5.29;51.99;98421.85;107982;1257;71636;-66
2024/01/15 08:21:02;;;;;;;35.00;17.60;;;;;;;5.42;51.67;98413.29;108076;1259;60364;-67
2024/01/15 08:23:31;;;;;;;42.30;20.80;;;;;;;5.32;51.89;98417.02;108105;1254;60533;-67
2024/01/15 08:25:58;;;;;;;43.40;19.40;;;;;;;5.43;51.54;98418.98;108117;1254;73885;-67
2024/01/15 08:28:26;;;;;;;42.80;20.80;;;;;;;5.44;51.60;98423.30;107949;1254;68918;-68
2024/01/15 08:30:54;;;;;;;41.40;20.70;;;;;;;5.56;51.18;98424.48;107853;1254;72722;-67
2024/01/15 08:33:21;;;;;;;33.30;15.70;;;;;;;5.56;50.80;98423.95;108180;1254;60359;-66
2024/01/15 08:35:49;;;;;;;37.00;16.90;;;;;;;5.64;50.67;98423.81;108127;1254;61967;-66
2024/01/15 08:38:18;;;;;;;35.20;17.40;;;;;;;5.28;51.32;98425.70;108115;1253;73818;-66
2024/01/15 08:40:45;;;;;;;44.70;21.20;;;;;;;5.49;51.00;98423.77;108103;1254;69929;-66
2024/01/15 08:43:13;;;;;;;37.90;16.50;;;;;;;5.85;50.37;98428.11;108098;1254;74831;-67
2024/01/15 08:45:41;;;;;;;37.30;18.10;;;;;;;5.58;50.62;98428.79;108133;1254;61000;-67
2024/01/15 08:48:11;;;;;;;34.00;17.80;;;;;;;5.64;50.44;98431.63;108157;1254;60407;-66
2024/01/15 08:50:39;;;;;;;38.40;18.00;;;;;;;5.44;50.55;98425.74;108116;1252;74182;-66
2024/01/15 08:53:07;;;;;;;38.50;18.80;;;;;;;5.47;50.54;98424.71;108126;1254;68707;-66
2024/01/15 08:55:34;;;;;;;27.70;13.30;;;;;;;5.62;50.26;98425.27;108067;1254;72614;-67
2024/01/15 08:58:03;;;;;;;34.30;15.90;;;;;;;5.50;49.93;98418.47;108093;1254;60853;-67
2024/01/15 09:00:30;;;;;;;33.10;15.30;;;;;;;5.54;49.82;98416.06;108077;1254;60443;-66
2024/01/15 09:02:58;;;;;;;33.10;15.20;;;;;;;5.67;49.41;98415.33;108108;1254;71804;-66
2024/01/15 09:05:26;;;;;;;27.20;14.40;;;;;;;5.81;48.87;98409.11;108080;1254;70829;-67
2024/01/15 09:07:54;;;;;;;31.00;14.90;;;;;;;5.89;48.59;98410.64;108092;1254;71352;-68
2024/01/15 09:10:22;;;;;;;30.40;15.50;;;;;;;6.02;48.10;98412.73;108116;1255;60303;-67
2024/01/15 09:12:49;;;;;;;34.60;17.20;;;;;;;5.79;48.06;98411.12;108206;1253;62216;-67
2024/01/15 09:15:17;;;;;;;31.40;14.00;;;;;;;6.10;47.79;98415.14;108148;1259;73760;-67
2024/01/15 09:17:46;;;;;;;34.20;15.80;;;;;;;6.03;47.31;98415.66;108126;1254;70240;-67
2024/01/15 09:20:14;;;;;;;38.70;16.80;;;;;;;5.86;47.19;98407.67;108108;1254;71572;-67
2024/01/15 09:22:42;;;;;;;36.90;15.40;;;;;;;5.88;47.55;98400.98;108106;1254;61042;-67
2024/01/15 09:25:10;;;;;;;31.80;16.00;;;;;;;6.15;47.06;98395.23;108204;1254;59832;-67
2024/01/15 09:27:38;;;;;;;34.80;16.50;;;;;;;6.10;46.72;98393.04;108173;1254;73684;-67
2024/01/15 09:30:06;;;;;;;29.30;13.70;;;;;;;6.19;46.55;98391.05;108012;1254;70890;-68
2024/01/15 09:32:34;;;;;;;35.70;16.30;;;;;;;6.16;46.39;98384.71;108087;1254;70866;-67
2024/01/15 09:35:03;;;;;;;28.90;13.10;;;;;;;6.11;46.35;98383.05;108023;1262;61952;-67
2024/01/15 09:37:31;;;;;;;30.70;15.60;;;;;;;6.04;46.26;98374.48;108207;1254;60431;-66
2024/01/15 09:40:16;;;;;;;30.00;15.20;;;;;;;6.24;45.81;98367.80;108062;1253;76108;-66
2024/01/15 09:42:44;;;;;;;;;;;;;;;6.27;45.68;98368.70;108124;1259;71811;-66
2024/01/15 09:45:12;;;;;;;33.20;14.10;;;;;;;6.02;45.84;98367.08;108064;1257;74880;-66
2024/01/15 09:47:41;;;;;;;29.70;13.90;;;;;;;6.00;45.72;98366.48;107967;1254;60508;-66
2024/01/15 09:50:14;;;;;;;30.30;14.30;;;;;;;6.13;45.53;98367.29;108024;1254;61170;-67
2024/01/15 09:52:44;;;;;;;28.30;13.90;;;;;;;6.34;45.28;98360.52;107989;1254;74973;-67
2024/01/15 09:55:12;;;;;;;28.40;14.60;;;;;;;6.37;45.17;98360.18;108091;1258;68967;-66
2024/01/15 09:57:40;;;;;;;31.20;14.70;;;;;;;6.46;44.96;98359.41;108129;1253;72820;-65
2024/01/15 10:00:10;;;;;;;26.70;12.80;;;;;;;6.39;44.78;98358.68;108148;1257;63127;-66
2024/01/15 10:02:39;;;;;;;23.00;11.70;;;;;;;6.36;44.74;98359.37;108169;1252;59866;-67
2024/01/15 10:05:08;;;;;;;29.00;12.60;;;;;;;6.23;44.64;98354.57;108136;1255;76249;-65
2024/01/15 10:07:36;;;;;;;25.60;12.50;;;;;;;6.22;44.79;98352.73;107978;1254;69250;-67
2024/01/15 10:10:05;;;;;;;29.90;14.70;;;;;;;6.10;45.01;98348.91;108117;1257;74949;-67
2024/01/15 10:12:33;;;;;;;30.10;14.10;;;;;;;6.33;44.79;98336.00;108249;1253;61125;-66
2024/01/15 10:15:01;;;;;;;30.70;13.60;;;;;;;6.34;44.58;98331.93;108113;1253;60335;-66
2024/01/15 10:17:28;;;;;;;33.90;13.90;;;;;;;6.27;44.46;98329.29;108122;1254;76075;-65
2024/01/15 10:19:57;;;;;;;31.70;13.40;;;;;;;6.51;44.49;98326.91;108178;1256;73215;-67
2024/01/15 10:22:25;;;;;;;28.30;13.90;;;;;;;6.39;44.31;98334.49;108069;1254;71443;-67
2024/01/15 10:24:53;;;;;;;33.60;16.00;;;;;;;6.33;44.48;98337.55;108021;1259;61058;-66
2024/01/15 10:27:21;;;;;;;45.00;16.30;;;;;;;6.36;44.74;98340.91;108081;1254;60331;-66
2024/01/15 10:29:49;;;;;;;23.90;11.60;;;;;;;6.25;44.89;98344.05;108271;1256;73436;-67
2024/01/15 10:32:17;;;;;;;25.90;13.10;;;;;;;6.21;44.85;98335.52;107997;1254;70610;-67
2024/01/15 10:37:49;;;;;;;25.20;13.70;;;;;;;5.28;47.26;98331.77;104816;1292;600772;-66
2024/01/15 10:40:16;;;;;;;30.10;13.80;;;;;;;6.26;44.59;98332.13;107283;1266;59126;-68
2024/01/15 10:42:43;;;;;;;34.60;15.70;;;;;;;6.24;44.71;98331.37;107309;1266;60405;-66
2024/01/15 10:45:10;;;;;;;31.20;13.20;;;;;;;6.28;44.27;98333.77;107288;1266;72295;-66
2024/01/15 10:47:37;;;;;;;27.60;14.20;;;;;;;6.24;44.28;98337.28;107173;1272;69227;-66
2024/01/15 10:50:07;;;;;;;29.80;12.20;;;;;;;6.36;44.32;98330.05;107119;1266;113324;-67
2024/01/15 10:52:35;;;;;;;30.20;13.10;;;;;;;6.30;43.99;98325.83;108128;1253;61174;-67
2024/01/15 10:55:03;;;;;;;35.00;15.70;;;;;;;6.33;44.00;98326.05;108202;1253;60446;-67
2024/01/15 10:57:37;;;;;;;42.50;17.00;;;;;;;6.39;43.96;98316.88;108147;1253;73667;-67
2024/01/15 11:00:05;;;;;;;37.70;17.20;;;;;;;6.49;43.75;98310.64;108176;1256;69742;-67
2024/01/15 11:02:33;;;;;;;27.70;14.00;;;;;;;6.44;43.48;98305.47;108217;1253;71752;-67
2024/01/15 11:04:59;;;;;;;27.70;13.90;;;;;;;6.47;43.54;98293.97;108133;1254;59762;-67
2024/01/15 11:07:26;;;;;;;33.40;14.20;;;;;;;6.57;43.65;98294.73;107901;1254;60245;-67
2024/01/15 11:09:57;;;;;;;25.90;12.10;;;;;;;6.56;43.39;98290.25;107885;1254;72815;-67
2024/01/15 11:12:25;;;;;;;24.60;10.70;;;;;;;6.36;43.51;98288.27;108097;1255;69783;-66
2024/01/15 11:14:54;;;;;;;30.40;14.60;;;;;;;6.35;43.94;98284.65;107983;1254;71510;-66
2024/01/15 11:17:21;;;;;;;35.10;16.20;;;;;;;6.53;43.25;98284.80;108009;1254;59536;-67
2024/01/15 11:19:50;;;;;;;32.80;16.00;;;;;;;6.68;43.06;98278.48;108001;1258;59685;-67
2024/01/15 11:22:29;;;;;;;24.90;11.20;;;;;;;6.82;42.94;98270.58;108037;1257;71816;-67
2024/01/15 11:24:57;;;;;;;37.70;16.20;;;;;;;6.87;43.09;98272.27;107924;1258;70753;-66
2024/01/15 11:27:51;;;;;;;31.30;16.30;;;;;;;6.94;42.83;98268.59;108130;1254;72788;-66
2024/01/15 11:30:22;;;;;;;32.80;15.70;;;;;;;6.91;42.79;98264.59;108042;1258;60863;-67
2024/01/15 11:32:48;;;;;;;36.20;17.50;;;;;;;6.80;43.32;98266.33;108150;1257;59488;-67
2024/01/15 11:35:16;;;;;;;40.20;18.40;;;;;;;6.66;43.39;98260.80;108058;1254;73125;-68
2024/01/15 11:37:56;;;;;;;39.30;18.90;;;;;;;6.75;43.24;98259.83;108061;1253;70246;-67
2024/01/15 11:40:38;;;;;;;38.60;17.40;;;;;;;6.93;42.95;98264.28;108103;1254;71597;-67
2024/01/15 11:43:06;;;;;;;36.60;17.20;;;;;;;6.78;43.52;98262.63;108058;1259;61256;-67
2024/01/15 11:45:34;;;;;;;34.60;17.70;;;;;;;6.93;43.30;98259.03;108172;1252;61593;-68
2024/01/15 11:48:10;;;;;;;35.70;18.40;;;;;;;7.10;43.37;98258.52;108123;1253;73066;-67
2024/01/15 11:50:49;;;;;;;39.10;18.70;;;;;;;7.02;43.37;98263.66;108004;1255;71535;-67
2024/01/15 11:53:18;;;;;;;39.40;18.80;;;;;;;6.98;43.37;98264.02;108116;1256;72890;-68
2024/01/15 11:55:45;;;;;;;43.20;19.60;;;;;;;6.87;43.63;98262.14;107921;1254;61151;-67
2024/01/15 11:58:12;;;;;;;39.60;19.80;;;;;;;6.84;43.41;98255.48;108045;1259;59457;-68
2024/01/15 12:01:00;;;;;;;41.50;18.70;;;;;;;7.03;43.82;98255.04;107959;1253;72015;-67
2024/01/15 12:03:27;;;;;;;37.30;16.70;;;;;;;6.99;43.52;98250.92;108049;1253;71561;-68
2024/01/15 12:05:54;;;;;;;39.80;18.30;;;;;;;6.96;43.71;98254.89;108180;1257;72609;-67